createdAt,value
2022-12-27T00:00:50.413Z,74
2022-12-27T00:02:51.106Z,74
2022-12-27T00:04:50.448Z,74
2022-12-27T00:06:50.365Z,74
2022-12-27T00:08:50.234Z,74
2022-12-27T00:10:50.774Z,74
2022-12-27T00:12:50.443Z,73
2022-12-27T00:14:50.219Z,73
2022-12-27T00:16:51.259Z,72
2022-12-27T00:18:50.844Z,72
2022-12-27T00:20:50.492Z,72
2022-12-27T00:22:50.272Z,72
2022-12-27T00:24:50.953Z,72
2022-12-27T00:26:50.935Z,72
2022-12-27T00:28:50.550Z,74
2022-12-27T00:30:50.392Z,74
2022-12-27T00:32:50.161Z,73
2022-12-27T00:34:50.225Z,74
2022-12-27T00:36:50.232Z,73
2022-12-27T00:38:51.108Z,73
2022-12-27T00:40:50.803Z,73
2022-12-27T00:42:50.661Z,72
2022-12-27T00:44:50.259Z,72
2022-12-27T00:46:50.263Z,72
2022-12-27T00:48:50.939Z,73
2022-12-27T00:50:50.702Z,73
2022-12-27T00:52:50.311Z,72
2022-12-27T00:54:50.944Z,72
2022-12-27T00:56:50.980Z,71
2022-12-27T00:58:50.551Z,71
2022-12-27T01:00:50.628Z,71
2022-12-27T01:02:50.587Z,70
2022-12-27T01:04:50.633Z,71
2022-12-27T01:06:50.634Z,71
2022-12-27T01:08:50.422Z,71
2022-12-27T01:10:50.255Z,71
2022-12-27T01:12:51.155Z,71
2022-12-27T01:14:50.916Z,72
2022-12-27T01:16:51.231Z,72
2022-12-27T01:18:50.978Z,72
2022-12-27T01:20:50.550Z,72
2022-12-27T01:22:50.318Z,72
2022-12-27T01:24:51.004Z,73
2022-12-27T01:26:50.176Z,73
2022-12-27T01:28:51.036Z,74
2022-12-27T01:30:51.162Z,74
2022-12-27T01:32:50.613Z,74
2022-12-27T01:34:51.204Z,74
2022-12-27T01:36:50.203Z,74
2022-12-27T01:38:50.876Z,74
2022-12-27T01:40:50.712Z,74
2022-12-27T01:42:50.510Z,74
2022-12-27T01:44:51.131Z,74
2022-12-27T01:46:50.131Z,75
2022-12-27T01:48:50.750Z,75
2022-12-27T01:50:50.532Z,75
2022-12-27T01:52:50.399Z,75
2022-12-27T01:54:50.164Z,75
2022-12-27T01:56:50.983Z,74
2022-12-27T01:58:50.837Z,74
2022-12-27T02:00:50.801Z,75
2022-12-27T02:02:50.899Z,75
2022-12-27T02:04:51.098Z,75
2022-12-27T02:06:51.072Z,75
2022-12-27T02:08:50.681Z,75
2022-12-27T02:10:50.543Z,75
2022-12-27T02:12:51.173Z,76
2022-12-27T02:14:50.927Z,76
2022-12-27T02:16:51.186Z,76
2022-12-27T02:18:50.936Z,76
2022-12-27T02:20:50.568Z,76
2022-12-27T02:22:50.400Z,75
2022-12-27T02:24:50.980Z,75
2022-12-27T02:26:50.190Z,76
2022-12-27T02:28:51.030Z,76
2022-12-27T02:30:50.813Z,76
2022-12-27T02:32:50.699Z,76
2022-12-27T02:34:50.879Z,76
2022-12-27T02:36:50.869Z,76
2022-12-27T02:38:50.715Z,77
2022-12-27T02:40:50.286Z,77
2022-12-27T02:42:50.207Z,77
2022-12-27T02:44:50.730Z,77
2022-12-27T02:46:50.827Z,77
2022-12-27T02:48:50.370Z,77
2022-12-27T02:50:50.183Z,77
2022-12-27T02:52:50.774Z,77
2022-12-27T02:54:50.397Z,77
2022-12-27T02:56:50.589Z,77
2022-12-27T02:58:50.437Z,77
2022-12-27T03:00:51.041Z,77
2022-12-27T03:02:51.095Z,78
2022-12-27T03:04:50.311Z,78
2022-12-27T03:06:50.287Z,78
2022-12-27T03:08:50.300Z,78
2022-12-27T03:10:50.144Z,79
2022-12-27T03:12:50.736Z,79
2022-12-27T03:14:50.607Z,79
2022-12-27T03:16:50.724Z,79
2022-12-27T03:18:50.409Z,79
2022-12-27T03:20:50.227Z,79
2022-12-27T03:22:51.039Z,79
2022-12-27T03:24:50.796Z,79
2022-12-27T03:26:50.840Z,79
2022-12-27T03:28:50.659Z,79
2022-12-27T03:30:50.486Z,79
2022-12-27T03:32:50.316Z,79
2022-12-27T03:34:50.510Z,79
2022-12-27T03:36:50.525Z,79
2022-12-27T03:38:50.334Z,80
2022-12-27T03:40:50.966Z,80
2022-12-27T03:42:50.770Z,80
2022-12-27T03:44:50.577Z,80
2022-12-27T03:46:50.616Z,80
2022-12-27T03:48:50.154Z,80
2022-12-27T03:50:51.039Z,80
2022-12-27T03:52:50.780Z,81
2022-12-27T03:54:50.649Z,81
2022-12-27T03:56:50.666Z,81
2022-12-27T03:58:50.456Z,80
2022-12-27T04:00:51.143Z,80
2022-12-27T04:02:52.249Z,81
2022-12-27T04:04:50.787Z,81
2022-12-27T04:06:50.739Z,81
2022-12-27T04:08:50.557Z,81
2022-12-27T04:10:50.348Z,81
2022-12-27T04:12:50.979Z,81
2022-12-27T04:14:50.833Z,81
2022-12-27T04:16:50.809Z,81
2022-12-27T04:18:50.643Z,81
2022-12-27T04:20:50.293Z,81
2022-12-27T04:22:51.059Z,81
2022-12-27T04:24:50.653Z,81
2022-12-27T04:26:50.692Z,81
2022-12-27T04:28:50.581Z,81
2022-12-27T04:30:50.568Z,81
2022-12-27T04:32:50.540Z,81
2022-12-27T04:34:50.751Z,81
2022-12-27T04:36:50.751Z,82
2022-12-27T04:38:50.366Z,82
2022-12-27T04:40:51.041Z,82
2022-12-27T04:42:50.770Z,82
2022-12-27T04:44:50.607Z,82
2022-12-27T04:46:51.118Z,82
2022-12-27T04:48:50.817Z,82
2022-12-27T04:50:50.620Z,82
2022-12-27T04:52:50.330Z,82
2022-12-27T04:54:50.962Z,82
2022-12-27T04:56:51.080Z,82
2022-12-27T04:58:50.817Z,82
2022-12-27T05:00:50.469Z,82
2022-12-27T05:02:51.370Z,82
2022-12-27T05:04:50.682Z,82
2022-12-27T05:06:50.861Z,82
2022-12-27T05:08:50.673Z,82
2022-12-27T05:10:50.339Z,82
2022-12-27T05:12:50.263Z,82
2022-12-27T05:14:50.913Z,82
2022-12-27T05:16:50.945Z,82
2022-12-27T05:18:50.768Z,82
2022-12-27T05:20:50.399Z,82
2022-12-27T05:22:50.178Z,82
2022-12-27T05:24:50.898Z,82
2022-12-27T05:26:50.130Z,82
2022-12-27T05:28:51.027Z,82
2022-12-27T05:30:50.645Z,82
2022-12-27T05:32:50.442Z,82
2022-12-27T05:34:50.693Z,82
2022-12-27T05:36:50.949Z,82
2022-12-27T05:38:50.731Z,82
2022-12-27T05:40:50.319Z,82
2022-12-27T05:42:50.912Z,82
2022-12-27T05:44:50.535Z,82
2022-12-27T05:46:51.159Z,82
2022-12-27T05:48:50.786Z,82
2022-12-27T05:50:50.398Z,82
2022-12-27T05:52:50.186Z,82
2022-12-27T05:54:50.806Z,82
2022-12-27T05:56:50.844Z,82
2022-12-27T05:58:50.631Z,82
2022-12-27T06:00:50.420Z,82
2022-12-27T06:02:51.596Z,83
2022-12-27T06:04:50.939Z,83
2022-12-27T06:06:50.936Z,83
2022-12-27T06:08:50.528Z,83
2022-12-27T06:10:50.360Z,83
2022-12-27T06:12:50.157Z,83
2022-12-27T06:14:51.023Z,83
2022-12-27T06:16:50.431Z,83
2022-12-27T06:18:50.295Z,83
2022-12-27T06:20:50.967Z,83
2022-12-27T06:22:50.669Z,83
2022-12-27T06:24:50.258Z,83
2022-12-27T06:26:50.224Z,83
2022-12-27T06:28:50.881Z,83
2022-12-27T06:30:50.480Z,83
2022-12-27T06:32:50.253Z,83
2022-12-27T06:34:50.528Z,83
2022-12-27T06:36:50.741Z,83
2022-12-27T06:38:50.581Z,83
2022-12-27T06:40:50.205Z,83
2022-12-27T06:42:50.936Z,83
2022-12-27T06:44:50.609Z,83
2022-12-27T06:46:50.810Z,84
2022-12-27T06:48:50.622Z,84
2022-12-27T06:50:50.382Z,84
2022-12-27T06:52:51.077Z,84
2022-12-27T06:54:50.859Z,84
2022-12-27T06:56:50.853Z,84
2022-12-27T06:58:50.552Z,84
2022-12-27T07:00:50.643Z,84
2022-12-27T07:02:51.133Z,84
2022-12-27T07:04:50.339Z,84
2022-12-27T07:06:50.547Z,84
2022-12-27T07:08:50.194Z,84
2022-12-27T07:10:50.824Z,84
2022-12-27T07:12:50.571Z,84
2022-12-27T07:14:50.201Z,84
2022-12-27T07:16:50.560Z,84
2022-12-27T07:18:50.847Z,84
2022-12-27T07:20:50.432Z,84
2022-12-27T07:22:51.020Z,84
2022-12-27T07:24:50.674Z,84
2022-12-27T07:26:50.672Z,84
2022-12-27T07:28:50.382Z,84
2022-12-27T07:30:51.127Z,84
2022-12-27T07:32:50.719Z,84
2022-12-27T07:34:50.948Z,84
2022-12-27T07:36:50.938Z,84
2022-12-27T07:38:50.892Z,84
2022-12-27T07:40:50.584Z,84
2022-12-27T07:42:50.396Z,84
2022-12-27T07:44:51.056Z,84
2022-12-27T07:46:50.978Z,85
2022-12-27T07:48:50.634Z,85
2022-12-27T07:50:50.430Z,85
2022-12-27T07:52:51.099Z,85
2022-12-27T07:54:50.688Z,85
2022-12-27T07:56:50.915Z,85
2022-12-27T07:58:50.459Z,85
2022-12-27T08:00:50.117Z,85
2022-12-27T08:02:50.933Z,85
2022-12-27T08:04:50.416Z,85
2022-12-27T08:06:50.565Z,85
2022-12-27T08:08:50.377Z,85
2022-12-27T08:10:50.976Z,85
2022-12-27T08:12:50.756Z,85
2022-12-27T08:14:50.493Z,84
2022-12-27T08:16:50.770Z,84
2022-12-27T08:18:50.453Z,84
2022-12-27T08:20:50.273Z,84
2022-12-27T08:22:51.031Z,84
2022-12-27T08:24:50.912Z,84
2022-12-27T08:26:50.902Z,84
2022-12-27T08:28:50.578Z,84
2022-12-27T08:30:50.512Z,84
2022-12-27T08:32:50.343Z,84
2022-12-27T08:34:50.597Z,84
2022-12-27T08:36:57.776Z,84
2022-12-27T08:38:50.437Z,83
2022-12-27T08:40:50.243Z,83
2022-12-27T08:42:50.832Z,83
2022-12-27T08:44:50.645Z,83
2022-12-27T08:46:50.833Z,83
2022-12-27T08:48:50.595Z,83
2022-12-27T08:50:50.298Z,83
2022-12-27T08:52:51.087Z,83
2022-12-27T08:54:50.688Z,83
2022-12-27T08:56:50.770Z,83
2022-12-27T08:58:50.336Z,83
2022-12-27T09:00:50.978Z,83
2022-12-27T09:02:51.059Z,83
2022-12-27T09:04:50.221Z,83
2022-12-27T09:06:50.231Z,83
2022-12-27T09:08:51.062Z,83
2022-12-27T09:10:50.794Z,83
2022-12-27T09:12:50.260Z,83
2022-12-27T09:14:50.847Z,83
2022-12-27T09:16:50.638Z,83
2022-12-27T09:18:51.333Z,83
2022-12-27T09:20:50.875Z,82
2022-12-27T09:22:50.544Z,82
2022-12-27T09:24:50.126Z,82
2022-12-27T09:26:50.779Z,82
2022-12-27T09:28:50.354Z,82
2022-12-27T09:30:51.338Z,82
2022-12-27T09:32:50.982Z,82
2022-12-27T09:34:50.780Z,82
2022-12-27T09:36:50.829Z,82
2022-12-27T09:38:50.673Z,82
2022-12-27T09:40:50.311Z,82
2022-12-27T09:43:27.753Z,82
2022-12-27T09:44:51.134Z,82
2022-12-27T09:46:50.892Z,82
2022-12-27T09:48:50.502Z,82
2022-12-27T09:50:50.150Z,82
2022-12-27T09:52:50.737Z,82
2022-12-27T09:54:50.397Z,82
2022-12-27T09:57:20.946Z,80
2022-12-27T09:58:51.115Z,80
2022-12-27T10:00:50.785Z,80
2022-12-27T10:02:50.899Z,80
2022-12-27T10:05:23.530Z,79
2022-12-27T10:06:50.891Z,78
2022-12-27T10:08:50.634Z,79
2022-12-27T10:10:50.285Z,79
2022-12-27T10:12:50.844Z,79
2022-12-27T10:14:50.562Z,79
2022-12-27T10:16:50.550Z,79
2022-12-27T10:18:50.192Z,79
2022-12-27T10:20:50.963Z,79
2022-12-27T10:22:50.562Z,78
2022-12-27T10:24:50.182Z,77
2022-12-27T10:26:50.190Z,78
2022-12-27T10:28:57.984Z,77
2022-12-27T10:30:50.879Z,77
2022-12-27T10:32:50.657Z,77
2022-12-27T10:34:50.814Z,77
2022-12-27T10:36:50.868Z,77
2022-12-27T10:38:50.490Z,76
2022-12-27T10:40:50.252Z,76
2022-12-27T10:42:50.695Z,75
2022-12-27T10:44:50.299Z,76
2022-12-27T10:46:50.838Z,75
2022-12-27T10:49:22.123Z,75
2022-12-27T10:50:50.430Z,75
2022-12-27T10:52:58.409Z,75
2022-12-27T10:54:50.950Z,75
2022-12-27T10:56:50.833Z,75
2022-12-27T10:58:59.685Z,75
2022-12-27T11:00:50.655Z,75
2022-12-27T11:02:50.774Z,74
2022-12-27T11:04:51.087Z,74
2022-12-27T11:06:51.051Z,74
2022-12-27T11:08:50.679Z,74
2022-12-27T11:10:50.343Z,74
2022-12-27T11:12:50.088Z,73
2022-12-27T11:14:50.736Z,73
2022-12-27T11:16:50.513Z,73
2022-12-27T11:18:50.200Z,73
2022-12-27T11:20:50.959Z,73
2022-12-27T11:22:50.637Z,73
2022-12-27T11:24:50.433Z,73
2022-12-27T11:26:54.995Z,73
2022-12-27T11:28:50.631Z,73
2022-12-27T11:30:50.262Z,73
2022-12-27T11:32:50.869Z,73
2022-12-27T11:34:50.840Z,73
2022-12-27T11:36:50.692Z,73
2022-12-27T11:38:50.303Z,73
2022-12-27T11:40:50.721Z,73
2022-12-27T11:42:50.363Z,73
2022-12-27T11:44:51.022Z,73
2022-12-27T11:47:00.263Z,73
2022-12-27T11:48:50.904Z,73
2022-12-27T11:50:50.420Z,73
2022-12-27T11:52:50.936Z,73
2022-12-27T11:54:50.660Z,72
2022-12-27T11:56:50.621Z,73
2022-12-27T11:58:50.241Z,73
2022-12-27T12:00:50.884Z,72
2022-12-27T12:02:51.315Z,72
2022-12-27T12:04:50.893Z,72
2022-12-27T12:06:50.685Z,72
2022-12-27T12:08:50.325Z,72
2022-12-27T12:10:50.723Z,72
2022-12-27T12:12:50.335Z,72
2022-12-27T12:14:50.199Z,72
2022-12-27T12:16:50.692Z,73
2022-12-27T12:18:50.406Z,73
2022-12-27T12:20:51.764Z,72
2022-12-27T12:22:50.232Z,72
2022-12-27T12:24:51.067Z,72
2022-12-27T12:26:56.649Z,73
2022-12-27T12:29:01.416Z,72
2022-12-27T12:30:50.894Z,73
2022-12-27T12:32:50.513Z,73
2022-12-27T12:34:50.718Z,73
2022-12-27T12:36:53.527Z,72
2022-12-27T12:38:50.146Z,72
2022-12-27T12:40:50.715Z,72
2022-12-27T12:42:50.551Z,71
2022-12-27T12:44:50.178Z,71
2022-12-27T12:46:50.963Z,71
2022-12-27T12:48:50.631Z,71
2022-12-27T12:50:50.221Z,71
2022-12-27T12:52:51.013Z,70
2022-12-27T12:54:50.416Z,71
2022-12-27T12:56:50.683Z,70
2022-12-27T12:58:50.308Z,70
2022-12-27T13:00:51.362Z,70
2022-12-27T13:02:50.896Z,70
2022-12-27T13:04:50.913Z,70
2022-12-27T13:06:50.930Z,70
2022-12-27T13:08:50.563Z,70
2022-12-27T13:10:50.212Z,70
2022-12-27T13:12:53.804Z,71
2022-12-27T13:14:50.385Z,70
2022-12-27T13:16:50.620Z,71
2022-12-27T13:18:50.213Z,71
2022-12-27T13:20:50.853Z,70
2022-12-27T13:22:50.241Z,70
2022-12-27T13:24:50.833Z,70
2022-12-27T13:26:50.706Z,70
2022-12-27T13:28:50.295Z,70
2022-12-27T13:30:50.300Z,70
2022-12-27T13:32:50.906Z,70
2022-12-27T13:34:50.972Z,70
2022-12-27T13:36:51.024Z,70
2022-12-27T13:38:50.527Z,70
2022-12-27T13:40:50.222Z,70
2022-12-27T13:42:50.793Z,70
2022-12-27T13:44:50.421Z,70
2022-12-27T13:46:50.414Z,70
2022-12-27T13:48:51.046Z,70
2022-12-27T13:50:50.657Z,69
2022-12-27T13:53:00.800Z,70
2022-12-27T13:54:50.491Z,69
2022-12-27T13:56:56.312Z,69
2022-12-27T13:59:00.264Z,70
2022-12-27T14:00:50.903Z,70
2022-12-27T14:02:51.202Z,70
2022-12-27T14:05:00.323Z,70
2022-12-27T14:06:50.341Z,70
2022-12-27T14:08:50.774Z,70
2022-12-27T14:11:01.837Z,70
2022-12-27T14:12:51.011Z,71
2022-12-27T14:14:50.601Z,71
2022-12-27T14:17:00.122Z,71
2022-12-27T14:18:50.588Z,71
2022-12-27T14:20:50.369Z,71
2022-12-27T14:22:54.992Z,71
2022-12-27T14:24:50.726Z,71
2022-12-27T14:26:50.156Z,71
2022-12-27T14:29:00.635Z,71
2022-12-27T14:30:50.539Z,71
2022-12-27T14:32:50.180Z,71
2022-12-27T14:35:00.465Z,71
2022-12-27T14:36:50.125Z,71
2022-12-27T14:38:50.811Z,71
2022-12-27T14:40:50.478Z,71
2022-12-27T14:42:51.006Z,71
2022-12-27T14:44:50.640Z,71
2022-12-27T14:46:50.787Z,71
2022-12-27T14:48:50.478Z,71
2022-12-27T14:50:51.266Z,71
2022-12-27T14:52:50.114Z,71
2022-12-27T14:54:50.489Z,71
2022-12-27T14:56:50.361Z,71
2022-12-27T14:58:50.171Z,71
2022-12-27T15:00:50.740Z,71
2022-12-27T15:02:51.616Z,71
2022-12-27T15:04:50.805Z,71
2022-12-27T15:06:50.859Z,71
2022-12-27T15:08:50.510Z,71
2022-12-27T15:10:50.181Z,71
2022-12-27T15:12:50.775Z,71
2022-12-27T15:14:50.385Z,71
2022-12-27T15:16:50.388Z,71
2022-12-27T15:18:51.111Z,71
2022-12-27T15:20:50.817Z,71
2022-12-27T15:22:50.433Z,71
2022-12-27T15:24:51.059Z,71
2022-12-27T15:26:51.028Z,71
2022-12-27T15:28:50.464Z,70
2022-12-27T15:30:51.531Z,71
2022-12-27T15:32:54.059Z,71
2022-12-27T15:34:50.129Z,71
2022-12-27T15:36:50.876Z,71
2022-12-27T15:38:55.697Z,71
2022-12-27T15:40:50.369Z,71
2022-12-27T15:42:50.963Z,72
2022-12-27T15:44:50.647Z,72
2022-12-27T15:46:50.902Z,72
2022-12-27T15:48:54.436Z,72
2022-12-27T15:50:51.006Z,72
2022-12-27T15:52:50.671Z,72
2022-12-27T15:54:54.532Z,72
2022-12-27T15:56:50.482Z,73
2022-12-27T15:58:50.279Z,73
2022-12-27T16:00:50.907Z,73
2022-12-27T16:02:51.777Z,73
2022-12-27T16:04:51.059Z,73
2022-12-27T16:06:51.043Z,73
2022-12-27T16:08:50.746Z,73
2022-12-27T16:10:50.489Z,73
2022-12-27T16:12:50.218Z,74
2022-12-27T16:14:50.821Z,73
2022-12-27T16:16:50.828Z,73
2022-12-27T16:18:50.517Z,73
2022-12-27T16:20:51.038Z,74
2022-12-27T16:22:50.875Z,74
2022-12-27T16:24:50.480Z,74
2022-12-27T16:26:50.524Z,74
2022-12-27T16:28:51.119Z,74
2022-12-27T16:30:50.726Z,74
2022-12-27T16:32:50.363Z,74
2022-12-27T16:34:50.359Z,74
2022-12-27T16:36:50.373Z,75
2022-12-27T16:38:51.011Z,75
2022-12-27T16:40:50.798Z,75
2022-12-27T16:42:50.439Z,75
2022-12-27T16:44:50.992Z,75
2022-12-27T16:46:51.344Z,75
2022-12-27T16:48:51.025Z,75
2022-12-27T16:50:50.877Z,75
2022-12-27T16:52:50.499Z,75
2022-12-27T16:54:50.276Z,75
2022-12-27T16:56:50.292Z,75
2022-12-27T16:58:50.946Z,76
2022-12-27T17:00:50.951Z,76
2022-12-27T17:02:50.718Z,76
2022-12-27T17:04:50.791Z,76
2022-12-27T17:06:50.591Z,76
2022-12-27T17:08:50.349Z,76
2022-12-27T17:10:51.084Z,76
2022-12-27T17:12:50.599Z,76
2022-12-27T17:14:50.576Z,76
2022-12-27T17:16:50.965Z,76
2022-12-27T17:18:50.653Z,76
2022-12-27T17:20:50.267Z,76
2022-12-27T17:22:50.717Z,76
2022-12-27T17:24:50.547Z,76
2022-12-27T17:26:50.549Z,76
2022-12-27T17:28:50.166Z,76
2022-12-27T17:30:50.764Z,76
2022-12-27T17:32:50.404Z,76
2022-12-27T17:34:50.598Z,76
2022-12-27T17:36:50.379Z,77
2022-12-27T17:38:50.248Z,77
2022-12-27T17:40:50.861Z,77
2022-12-27T17:42:50.711Z,77
2022-12-27T17:44:50.525Z,77
2022-12-27T17:46:50.522Z,77
2022-12-27T17:48:51.107Z,77
2022-12-27T17:50:50.731Z,77
2022-12-27T17:52:50.338Z,77
2022-12-27T17:54:50.999Z,77
2022-12-27T17:56:50.723Z,77
2022-12-27T17:59:00.198Z,78
2022-12-27T18:00:51.105Z,77
2022-12-27T18:02:51.045Z,77
2022-12-27T18:04:51.028Z,77
2022-12-27T18:06:50.984Z,77
2022-12-27T18:08:50.651Z,77
2022-12-27T18:10:50.288Z,78
2022-12-27T18:12:51.031Z,78
2022-12-27T18:14:50.713Z,78
2022-12-27T18:16:50.988Z,78
2022-12-27T18:18:50.734Z,78
2022-12-27T18:20:50.315Z,78
2022-12-27T18:22:50.930Z,78
2022-12-27T18:24:50.323Z,78
2022-12-27T18:26:50.373Z,78
2022-12-27T18:28:50.981Z,78
2022-12-27T18:30:50.558Z,78
2022-12-27T18:32:50.277Z,78
2022-12-27T18:34:50.231Z,78
2022-12-27T18:36:50.204Z,78
2022-12-27T18:38:50.835Z,79
2022-12-27T18:40:53.772Z,79
2022-12-27T18:42:50.238Z,79
2022-12-27T18:44:50.692Z,79
2022-12-27T18:46:50.768Z,79
2022-12-27T18:48:50.308Z,79
2022-12-27T18:50:50.988Z,79
2022-12-27T18:52:55.668Z,79
2022-12-27T18:54:50.217Z,79
2022-12-27T18:56:50.145Z,79
2022-12-27T18:58:50.760Z,79
2022-12-27T19:00:50.856Z,79
2022-12-27T19:02:51.644Z,79
2022-12-27T19:04:50.624Z,80
2022-12-27T19:06:50.633Z,81
2022-12-27T19:10:51.103Z,81
2022-12-27T19:12:50.675Z,81
2022-12-27T19:14:50.555Z,82
2022-12-27T19:16:50.324Z,82
2022-12-27T19:18:50.960Z,82
2022-12-27T19:20:50.565Z,82
2022-12-27T19:22:50.254Z,82
2022-12-27T19:24:51.008Z,82
2022-12-27T19:26:51.015Z,82
2022-12-27T19:28:50.649Z,82
2022-12-27T19:30:50.228Z,82
2022-12-27T19:32:50.790Z,82
2022-12-27T19:34:50.917Z,82
2022-12-27T19:36:50.893Z,82
2022-12-27T19:38:50.693Z,82
2022-12-27T19:40:51.133Z,82
2022-12-27T19:42:50.894Z,82
2022-12-27T19:44:50.373Z,82
2022-12-27T19:46:50.119Z,82
2022-12-27T19:49:43.618Z,82
2022-12-27T19:50:50.743Z,82
2022-12-27T19:52:50.423Z,82
2022-12-27T19:54:51.091Z,82
2022-12-27T19:56:51.011Z,82
2022-12-27T19:58:50.684Z,82
2022-12-27T20:00:50.528Z,82
2022-12-27T20:02:50.895Z,83
2022-12-27T20:04:51.123Z,83
2022-12-27T20:06:50.382Z,83
2022-12-27T20:08:50.973Z,83
2022-12-27T20:10:50.698Z,83
2022-12-27T20:12:50.313Z,83
2022-12-27T20:14:51.060Z,83
2022-12-27T20:16:51.389Z,83
2022-12-27T20:18:50.143Z,83
2022-12-27T20:20:50.792Z,83
2022-12-27T20:22:50.384Z,83
2022-12-27T20:24:50.241Z,83
2022-12-27T20:26:50.226Z,83
2022-12-27T20:28:50.812Z,84
2022-12-27T20:30:50.514Z,84
2022-12-27T20:32:51.065Z,84
2022-12-27T20:34:50.332Z,84
2022-12-27T20:36:50.290Z,84
2022-12-27T20:38:50.949Z,84
2022-12-27T20:40:50.591Z,84
2022-12-27T20:42:50.151Z,84
2022-12-27T20:44:50.781Z,84
2022-12-27T20:46:50.781Z,84
2022-12-27T20:48:50.390Z,84
2022-12-27T20:50:51.001Z,84
2022-12-27T20:52:50.597Z,84
2022-12-27T20:54:50.240Z,84
2022-12-27T20:56:50.240Z,83
2022-12-27T20:58:50.898Z,83
2022-12-27T21:00:50.727Z,83
2022-12-27T21:02:51.549Z,83
2022-12-27T21:04:50.466Z,84
2022-12-27T21:06:50.348Z,84
2022-12-27T21:08:58.937Z,84
2022-12-27T21:10:50.541Z,84
2022-12-27T21:12:50.160Z,84
2022-12-27T21:14:50.779Z,85
2022-12-27T21:16:51.155Z,85
2022-12-27T21:18:50.805Z,85
2022-12-27T21:20:50.426Z,44.3
2022-12-27T21:22:51.055Z,43.2
2022-12-27T21:24:50.658Z,42.8
2022-12-27T21:26:57.211Z,42.4
2022-12-27T21:28:50.930Z,41.8
2022-12-27T21:30:50.791Z,42.6
2022-12-27T21:32:50.507Z,42.6
2022-12-27T21:34:50.539Z,41.5
2022-12-27T21:36:50.552Z,41.3
2022-12-27T21:38:50.212Z,41.2
2022-12-27T21:40:50.166Z,40.8
2022-12-27T21:42:50.196Z,41.1
2022-12-27T21:44:50.782Z,41.0
2022-12-27T21:46:50.825Z,41.9
2022-12-27T21:48:50.456Z,41.5
2022-12-27T21:50:50.513Z,41.4
2022-12-27T21:52:50.488Z,42.6
2022-12-27T21:54:51.028Z,42.1
2022-12-27T21:56:51.134Z,42.2
2022-12-27T21:58:50.755Z,42.2
2022-12-27T22:01:08.737Z,41.6
2022-12-27T22:02:51.632Z,41.8
2022-12-27T22:04:50.742Z,43.3
2022-12-27T22:06:50.946Z,43.4
2022-12-27T22:08:50.389Z,43.4
2022-12-27T22:10:50.970Z,43.0
2022-12-27T22:12:50.556Z,42.5
2022-12-27T22:14:50.218Z,43.4
2022-12-27T22:16:50.236Z,42.8
2022-12-27T22:18:50.907Z,42.8
2022-12-27T22:20:50.665Z,42.6
2022-12-27T22:22:50.244Z,42.1
2022-12-27T22:24:50.940Z,41.7
2022-12-27T22:26:51.199Z,41.5
2022-12-27T22:28:50.679Z,41.1
2022-12-27T22:30:50.757Z,41.5
2022-12-27T22:32:50.376Z,41.6
2022-12-27T22:34:50.392Z,41.2
2022-12-27T22:36:50.379Z,41.1
2022-12-27T22:38:51.077Z,41.5
2022-12-27T22:40:51.606Z,41.6
2022-12-27T22:42:50.451Z,42.1
2022-12-27T22:44:50.242Z,42.1
2022-12-27T22:47:28.538Z,42.6
2022-12-27T22:48:50.781Z,42.4
2022-12-27T22:50:50.542Z,42.1
2022-12-27T22:52:53.108Z,41.5
2022-12-27T22:55:07.631Z,42.4
2022-12-27T22:56:51.901Z,42.4
2022-12-27T22:58:50.736Z,41.7
2022-12-27T23:00:50.384Z,41.1
2022-12-27T23:02:51.314Z,41.2
2022-12-27T23:04:50.676Z,41.4
2022-12-27T23:06:50.591Z,41.3
2022-12-27T23:08:50.227Z,41.4
2022-12-27T23:10:50.813Z,40.9
2022-12-27T23:12:50.427Z,41.1
2022-12-27T23:14:51.083Z,41.3
2022-12-27T23:16:51.041Z,45.7
2022-12-27T23:18:50.648Z,45.2
2022-12-27T23:21:24.909Z,43.0
2022-12-27T23:22:50.120Z,42.4
2022-12-27T23:24:50.691Z,42.1
2022-12-27T23:26:50.724Z,41.4
2022-12-27T23:28:50.374Z,41.0
2022-12-27T23:30:51.384Z,41.7
2022-12-27T23:32:50.960Z,42.6
2022-12-27T23:34:50.222Z,42.1
2022-12-27T23:36:50.267Z,41.8
2022-12-27T23:38:51.064Z,43.0
2022-12-27T23:40:50.593Z,42.2
2022-12-27T23:42:50.276Z,42.6
2022-12-27T23:44:50.635Z,42.7
2022-12-27T23:46:51.057Z,42.3
2022-12-27T23:48:50.674Z,42.5
2022-12-27T23:50:50.298Z,43.3
2022-12-27T23:52:50.906Z,43.2
2022-12-27T23:54:50.751Z,42.1
2022-12-27T23:56:50.572Z,42.3
2022-12-27T23:58:50.184Z,42.2
